createdAt,value
2022-10-23T00:01:51.843Z,94.68
2022-10-23T00:07:24.136Z,95.28
2022-10-23T00:10:05.541Z,95.11
2022-10-23T00:12:36.685Z,95.29
2022-10-23T00:15:11.914Z,95.11
2022-10-23T00:17:51.110Z,95.18
2022-10-23T00:20:38.606Z,95.16
2022-10-23T00:23:07.323Z,95.16
2022-10-23T00:25:52.517Z,95.46
2022-10-23T00:28:28.488Z,95.09
2022-10-23T00:30:59.459Z,95.32
2022-10-23T00:33:30.274Z,95.19
2022-10-23T00:36:06.397Z,95.19
2022-10-23T00:38:36.813Z,94.85
2022-10-23T00:41:18.540Z,94.98
2022-10-23T00:44:56.692Z,95.39
2022-10-23T00:47:25.632Z,95.40
2022-10-23T00:50:08.718Z,95.43
2022-10-23T00:52:47.951Z,95.85
2022-10-23T00:55:19.186Z,95.67
2022-10-23T00:57:50.933Z,95.94
2022-10-23T01:00:31.620Z,95.65
2022-10-23T01:03:05.760Z,95.79
2022-10-23T01:05:50.714Z,95.70
2022-10-23T01:08:33.886Z,95.88
2022-10-23T01:11:16.737Z,95.55
2022-10-23T01:13:59.096Z,95.92
2022-10-23T01:16:38.954Z,96.16
2022-10-23T01:19:22.504Z,95.56
2022-10-23T01:22:01.316Z,95.57
2022-10-23T01:24:55.108Z,95.67
2022-10-23T01:30:17.009Z,95.83
2022-10-23T01:33:08.033Z,95.66
2022-10-23T01:35:47.502Z,95.69
2022-10-23T01:41:18.126Z,96.24
2022-10-23T01:43:57.682Z,95.92
2022-10-23T01:46:45.391Z,96.35
2022-10-23T01:49:23.610Z,96.15
2022-10-23T01:52:10.442Z,95.86
2022-10-23T01:54:43.598Z,95.79
2022-10-23T01:57:30.345Z,95.87
2022-10-23T02:00:23.523Z,96.04
2022-10-23T02:02:54.038Z,95.94
2022-10-23T02:05:33.259Z,95.85
2022-10-23T02:08:03.775Z,96.20
2022-10-23T02:10:43.194Z,95.91
2022-10-23T02:13:35.341Z,96.06
2022-10-23T02:16:39.849Z,96.11
2022-10-23T02:19:19.380Z,96.33
2022-10-23T02:24:52.038Z,96.27
2022-10-23T02:27:40.573Z,96.37
2022-10-23T02:30:12.099Z,96.27
2022-10-23T02:32:48.852Z,96.33
2022-10-23T02:36:02.296Z,96.93
2022-10-23T02:41:43.615Z,96.27
2022-10-23T02:44:38.234Z,96.61
2022-10-23T02:47:22.543Z,96.64
2022-10-23T02:50:07.327Z,97.16
2022-10-23T02:52:45.650Z,97.10
2022-10-23T02:55:31.052Z,97.17
2022-10-23T02:58:10.887Z,97.25
2022-10-23T03:00:45.342Z,97.33
2022-10-23T03:06:26.001Z,96.98
2022-10-23T03:11:45.755Z,97.60
2022-10-23T03:14:22.161Z,97.04
2022-10-23T03:17:03.364Z,97.21
2022-10-23T03:19:34.655Z,97.12
2022-10-23T03:22:12.149Z,97.53
2022-10-23T03:24:47.645Z,97.12
2022-10-23T03:27:17.467Z,97.18
2022-10-23T03:29:59.688Z,97.46
2022-10-23T03:32:46.146Z,97.89
2022-10-23T03:35:18.121Z,97.56
2022-10-23T03:37:57.742Z,97.71
2022-10-23T03:40:26.279Z,97.18
2022-10-23T03:42:55.979Z,97.17
2022-10-23T03:45:26.687Z,97.00
2022-10-23T03:47:58.526Z,96.83
2022-10-23T03:50:27.697Z,96.45
2022-10-23T03:52:57.477Z,96.56
2022-10-23T03:58:13.002Z,96.11
2022-10-23T04:03:22.577Z,96.47
2022-10-23T04:05:55.079Z,96.23
2022-10-23T04:08:25.095Z,96.06
2022-10-23T04:10:54.151Z,96.39
2022-10-23T04:13:22.790Z,96.27
2022-10-23T04:16:07.086Z,95.84
2022-10-23T04:18:52.358Z,95.92
2022-10-23T04:21:23.749Z,96.00
2022-10-23T04:24:00.178Z,95.80
2022-10-23T04:26:29.607Z,96.12
2022-10-23T04:29:03.130Z,96.03
2022-10-23T04:31:31.989Z,95.75
2022-10-23T04:34:02.582Z,95.85
2022-10-23T04:36:31.222Z,95.73
2022-10-23T04:39:02.234Z,95.67
2022-10-23T04:41:30.906Z,96.13
2022-10-23T04:44:03.436Z,95.59
2022-10-23T04:46:33.146Z,95.75
2022-10-23T04:54:46.259Z,95.51
2022-10-23T04:57:16.544Z,95.78
2022-10-23T04:59:51.879Z,95.85
2022-10-23T05:02:34.275Z,95.76
2022-10-23T05:05:06.505Z,95.95
2022-10-23T05:07:35.029Z,96.06
2022-10-23T05:10:11.305Z,96.20
2022-10-23T05:12:51.071Z,95.97
2022-10-23T05:15:20.804Z,96.28
2022-10-23T05:17:56.908Z,96.22
2022-10-23T05:20:31.555Z,96.07
2022-10-23T05:23:16.402Z,96.62
2022-10-23T05:25:47.976Z,96.52
2022-10-23T05:28:20.876Z,96.04
2022-10-23T05:30:50.161Z,96.09
2022-10-23T05:33:22.165Z,96.28
2022-10-23T05:35:50.516Z,95.99
2022-10-23T05:38:21.766Z,96.44
2022-10-23T05:40:55.042Z,96.23
2022-10-23T05:43:23.822Z,95.98
2022-10-23T05:48:53.019Z,95.96
2022-10-23T05:51:23.712Z,96.18
2022-10-23T05:53:54.465Z,95.95
2022-10-23T05:56:27.090Z,95.68
2022-10-23T05:59:02.791Z,95.63
2022-10-23T06:01:31.449Z,96.13
2022-10-23T06:04:00.948Z,95.78
2022-10-23T06:06:35.513Z,96.22
2022-10-23T06:09:04.889Z,96.15
2022-10-23T06:11:34.636Z,95.98
2022-10-23T06:14:04.062Z,96.11
2022-10-23T06:16:50.430Z,96.16
2022-10-23T06:19:24.169Z,95.85
2022-10-23T06:21:57.956Z,96.05
2022-10-23T06:24:29.661Z,95.97
2022-10-23T06:27:02.013Z,96.32
2022-10-23T06:29:37.465Z,96.38
2022-10-23T06:32:20.981Z,96.69
2022-10-23T06:34:54.988Z,96.61
2022-10-23T06:37:46.403Z,96.61
2022-10-23T06:40:16.518Z,97.03
2022-10-23T06:42:49.462Z,96.97
2022-10-23T06:45:25.742Z,97.16
2022-10-23T06:50:40.187Z,97.38
2022-10-23T06:53:12.360Z,97.42
2022-10-23T06:58:29.858Z,97.65
2022-10-23T07:01:02.912Z,97.86
2022-10-23T07:03:39.968Z,97.66
2022-10-23T07:06:17.635Z,98.01
2022-10-23T07:08:47.830Z,98.13
2022-10-23T07:11:22.337Z,98.45
2022-10-23T07:13:53.214Z,98.74
2022-10-23T07:19:14.260Z,98.93
2022-10-23T07:21:46.221Z,98.43
2022-10-23T07:24:15.713Z,98.98
2022-10-23T07:26:45.963Z,98.77
2022-10-23T07:29:49.071Z,99.08
2022-10-23T07:32:17.364Z,99.09
2022-10-23T07:34:45.799Z,98.84
2022-10-23T07:37:16.221Z,98.66
2022-10-23T07:39:44.501Z,99.23
2022-10-23T07:42:12.830Z,98.94
2022-10-23T07:44:43.156Z,99.55
2022-10-23T07:47:16.336Z,99.37
2022-10-23T07:49:44.851Z,99.07
2022-10-23T07:52:13.026Z,99.21
2022-10-23T07:54:41.402Z,99.25
2022-10-23T07:57:27.234Z,99.28
2022-10-23T07:59:56.921Z,99.26
2022-10-23T08:02:26.892Z,99.55
2022-10-23T08:04:55.188Z,99.19
2022-10-23T08:07:26.052Z,99.19
2022-10-23T08:09:54.434Z,99.67
2022-10-23T08:12:22.814Z,99.56
2022-10-23T08:15:18.215Z,99.63
2022-10-23T08:17:46.498Z,99.34
2022-10-23T08:20:14.839Z,99.46
2022-10-23T08:22:56.381Z,99.40
2022-10-23T08:25:25.121Z,99.25
2022-10-23T08:28:12.784Z,99.20
2022-10-23T08:30:54.142Z,99.30
2022-10-23T08:33:24.742Z,99.15
2022-10-23T08:35:57.006Z,99.28
2022-10-23T08:38:28.911Z,98.91
2022-10-23T08:41:02.837Z,99.02
2022-10-23T08:43:37.571Z,99.17
2022-10-23T08:46:13.451Z,99.21
2022-10-23T08:48:49.109Z,98.92
2022-10-23T08:51:35.066Z,98.48
2022-10-23T08:54:13.063Z,98.13
2022-10-23T08:56:44.537Z,98.18
2022-10-23T08:59:20.979Z,98.54
2022-10-23T09:01:58.900Z,98.31
2022-10-23T09:04:31.732Z,97.89
2022-10-23T09:07:22.666Z,98.23
2022-10-23T09:10:09.914Z,98.22
2022-10-23T09:12:55.241Z,98.07
2022-10-23T09:15:29.678Z,98.00
2022-10-23T09:20:55.961Z,97.80
2022-10-23T09:23:26.181Z,97.62
2022-10-23T09:25:57.240Z,97.35
2022-10-23T09:28:41.538Z,97.38
2022-10-23T09:31:13.068Z,96.95
2022-10-23T09:33:43.516Z,96.82
2022-10-23T09:36:23.568Z,96.84
2022-10-23T09:39:03.567Z,96.28
2022-10-23T09:41:37.300Z,96.34
2022-10-23T09:44:22.183Z,96.26
2022-10-23T09:46:53.647Z,95.93
2022-10-23T09:49:30.341Z,95.40
2022-10-23T09:52:04.801Z,95.57
2022-10-23T09:54:46.283Z,95.45
2022-10-23T09:57:28.050Z,95.43
2022-10-23T10:00:12.004Z,94.83
2022-10-23T10:03:03.811Z,95.04
2022-10-23T10:05:37.375Z,94.30
2022-10-23T10:08:15.476Z,93.88
2022-10-23T10:10:49.446Z,93.38
2022-10-23T10:14:21.620Z,93.81
2022-10-23T10:16:54.731Z,93.00
2022-10-23T10:19:38.297Z,92.44
2022-10-23T10:22:40.717Z,92.45
2022-10-23T10:25:28.790Z,91.86
2022-10-23T10:28:21.236Z,91.54
2022-10-23T10:31:02.725Z,90.91
2022-10-23T10:33:37.632Z,90.23
2022-10-23T10:36:21.227Z,89.61
2022-10-23T10:39:03.776Z,89.05
2022-10-23T10:41:56.338Z,88.92
2022-10-23T10:44:48.352Z,88.28
2022-10-23T10:47:28.779Z,87.39
2022-10-23T10:50:11.804Z,86.55
2022-10-23T10:52:49.368Z,85.82
2022-10-23T10:55:31.974Z,85.40
2022-10-23T10:58:20.478Z,84.77
2022-10-23T11:01:09.858Z,84.24
2022-10-23T11:03:44.090Z,83.73
2022-10-23T11:06:18.354Z,83.43
2022-10-23T11:08:57.188Z,83.01
2022-10-23T11:11:36.298Z,82.47
2022-10-23T11:14:05.064Z,82.00
2022-10-23T11:16:37.978Z,81.80
2022-10-23T11:19:23.771Z,81.73
2022-10-23T11:22:03.981Z,81.13
2022-10-23T11:25:37.491Z,81.62
2022-10-23T11:28:27.907Z,81.18
2022-10-23T11:31:12.121Z,81.15
2022-10-23T11:34:32.113Z,81.01
2022-10-23T11:37:07.197Z,80.66
2022-10-23T11:39:37.706Z,80.39
2022-10-23T11:42:31.956Z,80.68
2022-10-23T11:45:01.997Z,80.37
2022-10-23T11:47:55.718Z,80.46
2022-10-23T11:50:35.614Z,80.38
2022-10-23T11:53:15.647Z,80.18
2022-10-23T11:56:00.746Z,80.06
2022-10-23T11:58:51.594Z,79.94
2022-10-23T12:01:45.574Z,80.35
2022-10-23T12:04:25.807Z,80.20
2022-10-23T12:06:57.575Z,80.25
2022-10-23T12:09:37.576Z,80.06
2022-10-23T12:12:26.646Z,80.04
2022-10-23T12:14:55.958Z,79.95
2022-10-23T12:18:10.213Z,80.43
2022-10-23T12:20:57.430Z,79.80
2022-10-23T12:24:04.800Z,80.02
2022-10-23T12:26:50.768Z,79.80
2022-10-23T12:30:02.914Z,79.55
2022-10-23T12:33:29.455Z,79.34
2022-10-23T12:36:39.619Z,79.47
2022-10-23T12:39:36.357Z,79.31
2022-10-23T12:45:39.980Z,78.48
2022-10-23T12:48:26.830Z,78.19
2022-10-23T12:50:57.036Z,77.82
2022-10-23T12:56:10.206Z,77.71
2022-10-23T12:58:39.282Z,77.49
2022-10-23T13:01:23.375Z,77.70
2022-10-23T13:03:52.618Z,77.42
2022-10-23T13:06:26.130Z,77.42
2022-10-23T13:08:56.452Z,77.37
2022-10-23T13:11:26.229Z,77.50
2022-10-23T13:13:55.122Z,77.57
2022-10-23T13:16:26.666Z,77.31
2022-10-23T13:18:55.255Z,77.60
2022-10-23T13:21:30.261Z,77.61
2022-10-23T13:24:01.424Z,77.50
2022-10-23T13:26:45.540Z,77.79
2022-10-23T13:29:22.369Z,77.60
2022-10-23T13:31:51.463Z,77.84
2022-10-23T13:34:30.760Z,77.91
2022-10-23T13:37:04.203Z,77.68
2022-10-23T13:39:36.066Z,77.71
2022-10-23T13:42:17.732Z,77.54
2022-10-23T13:44:46.216Z,77.34
2022-10-23T13:47:23.067Z,77.39
2022-10-23T13:49:55.525Z,77.31
2022-10-23T13:52:29.125Z,77.19
2022-10-23T13:54:58.878Z,77.31
2022-10-23T13:57:35.375Z,77.47
2022-10-23T14:00:07.257Z,77.52
2022-10-23T14:02:35.760Z,77.44
2022-10-23T14:05:07.136Z,77.68
2022-10-23T14:07:35.554Z,77.62
2022-10-23T14:10:06.666Z,77.59
2022-10-23T14:12:42.202Z,77.77
2022-10-23T14:15:23.614Z,78.01
2022-10-23T14:17:56.580Z,78.17
2022-10-23T14:20:28.084Z,78.25
2022-10-23T14:23:07.785Z,78.17
2022-10-23T14:28:24.376Z,78.41
2022-10-23T14:30:52.679Z,78.76
2022-10-23T14:33:21.009Z,78.79
2022-10-23T14:35:55.798Z,78.92
2022-10-23T14:38:24.138Z,78.87
2022-10-23T14:41:25.310Z,79.38
2022-10-23T14:44:05.253Z,78.95
2022-10-23T14:46:35.655Z,79.21
2022-10-23T14:49:18.903Z,79.05
2022-10-23T14:51:55.387Z,79.30
2022-10-23T14:54:25.159Z,79.40
2022-10-23T14:56:54.910Z,79.42
2022-10-23T14:59:24.713Z,78.93
2022-10-23T15:04:36.717Z,79.17
2022-10-23T15:07:08.394Z,79.28
2022-10-23T15:09:40.128Z,79.28
2022-10-23T15:12:20.237Z,79.09
2022-10-23T15:14:54.823Z,79.48
2022-10-23T15:17:25.119Z,79.35
2022-10-23T15:19:53.515Z,79.73
2022-10-23T15:22:23.206Z,79.46
2022-10-23T15:24:54.093Z,79.33
2022-10-23T15:27:26.004Z,79.74
2022-10-23T15:30:02.767Z,79.53
2022-10-23T15:32:48.081Z,79.57
2022-10-23T15:35:16.778Z,79.96
2022-10-23T15:37:45.448Z,80.16
2022-10-23T15:40:14.619Z,80.09
2022-10-23T15:43:09.531Z,80.46
2022-10-23T15:45:43.045Z,80.64
2022-10-23T15:48:21.848Z,80.63
2022-10-23T15:50:50.335Z,80.63
2022-10-23T15:53:18.876Z,80.88
2022-10-23T15:55:48.735Z,80.90
2022-10-23T16:01:06.955Z,81.23
2022-10-23T16:03:41.119Z,81.47
2022-10-23T16:06:20.955Z,81.66
2022-10-23T16:08:50.217Z,81.72
2022-10-23T16:11:25.872Z,81.96
2022-10-23T16:14:21.791Z,82.49
2022-10-23T16:16:50.161Z,82.34
2022-10-23T16:19:18.799Z,82.67
2022-10-23T16:21:48.696Z,82.20
2022-10-23T16:24:20.448Z,83.05
2022-10-23T16:26:53.192Z,82.93
2022-10-23T16:29:24.418Z,83.40
2022-10-23T16:31:53.677Z,83.30
2022-10-23T16:34:22.673Z,83.70
2022-10-23T16:36:52.619Z,83.82
2022-10-23T16:39:21.804Z,83.81
2022-10-23T16:41:50.264Z,84.04
2022-10-23T16:44:18.656Z,84.04
2022-10-23T16:46:48.849Z,84.12
2022-10-23T16:49:17.524Z,84.22
2022-10-23T16:51:47.231Z,84.33
2022-10-23T16:54:21.949Z,84.52
2022-10-23T16:56:50.356Z,85.02
2022-10-23T16:59:18.851Z,85.16
2022-10-23T17:01:55.644Z,84.96
2022-10-23T17:04:47.903Z,85.00
2022-10-23T17:07:16.405Z,85.57
2022-10-23T17:09:46.597Z,85.75
2022-10-23T17:12:15.260Z,85.67
2022-10-23T17:15:00.418Z,86.13
2022-10-23T17:17:30.234Z,86.31
2022-10-23T17:19:59.004Z,86.32
2022-10-23T17:22:38.061Z,86.41
2022-10-23T17:25:08.168Z,86.74
2022-10-23T17:27:45.968Z,86.67
2022-10-23T17:30:17.985Z,86.79
2022-10-23T17:33:01.045Z,86.58
2022-10-23T17:35:32.659Z,86.74
2022-10-23T17:38:01.266Z,86.45
2022-10-23T17:40:32.980Z,86.75
2022-10-23T17:43:09.553Z,87.00
2022-10-23T17:45:39.652Z,86.80
2022-10-23T17:48:10.105Z,87.00
2022-10-23T17:50:38.489Z,87.24
2022-10-23T17:53:15.363Z,87.33
2022-10-23T17:55:48.757Z,87.63
2022-10-23T17:58:17.117Z,87.71
2022-10-23T18:00:45.591Z,87.54
2022-10-23T18:03:19.701Z,87.62
2022-10-23T18:05:53.611Z,87.46
2022-10-23T18:08:21.948Z,87.47
2022-10-23T18:10:50.416Z,87.72
2022-10-23T18:13:18.768Z,87.29
2022-10-23T18:15:47.153Z,87.71
2022-10-23T18:18:24.661Z,87.28
2022-10-23T18:20:55.915Z,87.71
2022-10-23T18:23:27.054Z,87.42
2022-10-23T18:25:55.616Z,87.46
2022-10-23T18:28:24.345Z,87.63
2022-10-23T18:30:59.637Z,87.49
2022-10-23T18:33:29.503Z,87.54
2022-10-23T18:36:09.829Z,87.89
2022-10-23T18:41:24.368Z,87.77
2022-10-23T18:43:53.659Z,87.79
2022-10-23T18:46:30.564Z,87.75
2022-10-23T18:49:15.366Z,87.85
2022-10-23T18:51:43.750Z,87.98
2022-10-23T18:54:21.396Z,88.00
2022-10-23T18:57:08.627Z,87.90
2022-10-23T18:59:57.163Z,87.98
2022-10-23T19:02:25.559Z,87.73
2022-10-23T19:04:55.569Z,87.81
2022-10-23T19:07:25.279Z,87.84
2022-10-23T19:09:53.938Z,87.85
2022-10-23T19:12:39.137Z,87.87
2022-10-23T19:15:20.408Z,87.93
2022-10-23T19:21:31.087Z,87.96
2022-10-23T19:24:03.852Z,87.62
2022-10-23T19:29:27.773Z,88.03
2022-10-23T19:31:56.296Z,87.90
2022-10-23T19:34:45.210Z,88.16
2022-10-23T19:37:30.091Z,87.65
2022-10-23T19:39:58.743Z,88.13
2022-10-23T19:42:31.890Z,88.04
2022-10-23T19:45:00.377Z,87.83
2022-10-23T19:50:15.214Z,88.19
2022-10-23T19:53:08.963Z,87.60
2022-10-23T19:55:44.742Z,87.50
2022-10-23T19:58:13.139Z,87.45
2022-10-23T20:00:43.971Z,87.64
2022-10-23T20:03:12.224Z,87.70
2022-10-23T20:05:53.969Z,87.46
2022-10-23T20:08:45.193Z,87.33
2022-10-23T20:11:20.399Z,87.20
2022-10-23T20:13:53.682Z,87.36
2022-10-23T20:16:27.988Z,87.14
2022-10-23T20:18:57.040Z,87.13
2022-10-23T20:21:26.730Z,87.30
2022-10-23T20:23:58.062Z,86.98
2022-10-23T20:26:29.598Z,86.29
2022-10-23T20:28:58.588Z,87.01
2022-10-23T20:31:39.566Z,86.57
2022-10-23T20:34:10.306Z,86.52
2022-10-23T20:36:45.621Z,86.27
2022-10-23T20:39:19.853Z,86.11
2022-10-23T20:41:49.619Z,86.24
2022-10-23T20:44:19.530Z,86.03
2022-10-23T20:46:48.897Z,86.12
2022-10-23T20:49:18.182Z,86.38
2022-10-23T20:51:48.087Z,86.37
2022-10-23T20:54:20.181Z,86.18
2022-10-23T20:56:48.648Z,86.26
2022-10-23T20:59:19.464Z,86.38
2022-10-23T21:01:51.301Z,86.24
2022-10-23T21:04:23.409Z,86.30
2022-10-23T21:07:08.950Z,86.49
2022-10-23T21:09:39.966Z,86.25
2022-10-23T21:12:08.761Z,86.43
2022-10-23T21:17:23.437Z,86.22
2022-10-23T21:19:51.741Z,86.49
2022-10-23T21:22:20.233Z,86.39
2022-10-23T21:24:57.091Z,86.73
2022-10-23T21:27:28.432Z,86.38
2022-10-23T21:29:57.029Z,86.34
2022-10-23T21:32:25.408Z,86.29
2022-10-23T21:34:55.256Z,86.71
2022-10-23T21:37:25.627Z,87.09
2022-10-23T21:39:55.656Z,87.07
2022-10-23T21:42:24.062Z,87.44
2022-10-23T21:44:52.490Z,87.26
2022-10-23T21:47:35.186Z,87.36
2022-10-23T21:50:03.786Z,87.46
2022-10-23T21:52:43.600Z,87.60
2022-10-23T21:55:14.134Z,87.68
2022-10-23T21:57:42.479Z,87.60
2022-10-23T22:00:15.856Z,87.94
2022-10-23T22:02:44.761Z,87.95
2022-10-23T22:05:13.168Z,88.27
2022-10-23T22:07:41.687Z,88.30
2022-10-23T22:10:10.494Z,88.45
2022-10-23T22:12:41.634Z,88.57
2022-10-23T22:15:11.242Z,88.75
2022-10-23T22:17:42.753Z,88.61
2022-10-23T22:20:12.329Z,88.74
2022-10-23T22:22:40.726Z,88.84
2022-10-23T22:25:25.772Z,89.06
2022-10-23T22:27:57.364Z,88.95
2022-10-23T22:30:28.216Z,88.92
2022-10-23T22:32:57.154Z,88.82
2022-10-23T22:35:25.757Z,89.05
2022-10-23T22:37:55.342Z,89.08
2022-10-23T22:40:23.597Z,89.68
2022-10-23T22:43:06.219Z,89.36
2022-10-23T22:45:43.123Z,89.29
2022-10-23T22:48:22.118Z,89.47
2022-10-23T22:50:50.422Z,89.43
2022-10-23T22:53:24.957Z,89.61
2022-10-23T22:55:53.910Z,89.61
2022-10-23T22:58:22.462Z,89.82
2022-10-23T23:03:52.283Z,89.58
2022-10-23T23:06:26.062Z,89.37
2022-10-23T23:09:01.147Z,89.41
2022-10-23T23:11:37.104Z,89.32
2022-10-23T23:14:15.759Z,89.49
2022-10-23T23:16:47.488Z,89.39
2022-10-23T23:19:23.419Z,89.65
2022-10-23T23:21:55.740Z,89.18
2022-10-23T23:24:34.521Z,89.11
2022-10-23T23:27:03.011Z,89.29
2022-10-23T23:29:31.369Z,89.24
2022-10-23T23:32:01.152Z,89.13
2022-10-23T23:34:30.381Z,88.84
2022-10-23T23:36:59.378Z,88.97
2022-10-23T23:39:36.336Z,88.99
2022-10-23T23:42:04.917Z,88.98
2022-10-23T23:44:33.472Z,88.78
2022-10-23T23:47:04.343Z,88.90
2022-10-23T23:49:32.688Z,88.49
2022-10-23T23:52:00.993Z,88.43
2022-10-23T23:54:29.243Z,88.25
2022-10-23T23:56:59.023Z,87.94
2022-10-23T23:59:27.674Z,88.26
